createdAt,value
2019-05-19T00:00:33.613Z,82.50
2019-05-19T00:03:02.601Z,83.30
2019-05-19T00:05:31.708Z,83.70
2019-05-19T00:08:00.524Z,84.30
2019-05-19T00:10:29.338Z,84.10
2019-05-19T00:12:58.411Z,84.20
2019-05-19T00:15:27.337Z,84.30
2019-05-19T00:17:56.132Z,84.70
2019-05-19T00:20:25.005Z,84.90
2019-05-19T00:22:53.828Z,85.10
2019-05-19T00:25:22.763Z,85.30
2019-05-19T00:27:51.545Z,85.50
2019-05-19T00:30:20.491Z,85.60
2019-05-19T00:32:49.310Z,85.80
2019-05-19T00:35:18.349Z,85.80
2019-05-19T00:37:47.254Z,86.30
2019-05-19T00:40:16.311Z,86.60
2019-05-19T00:42:45.241Z,86.40
2019-05-19T00:45:14.452Z,86.10
2019-05-19T00:47:43.620Z,86.70
2019-05-19T00:50:13.463Z,87.10
2019-05-19T00:52:42.347Z,86.90
2019-05-19T00:55:12.073Z,87.00
2019-05-19T00:57:40.994Z,87.40
2019-05-19T01:00:10.010Z,87.20
2019-05-19T01:02:38.873Z,87.40
2019-05-19T01:05:08.113Z,87.80
2019-05-19T01:07:37.060Z,87.90
2019-05-19T01:10:06.753Z,87.80
2019-05-19T01:12:35.607Z,87.50
2019-05-19T01:15:04.960Z,87.50
2019-05-19T01:17:33.812Z,87.60
2019-05-19T01:20:02.789Z,87.90
2019-05-19T01:22:31.636Z,88.20
2019-05-19T01:25:00.518Z,88.50
2019-05-19T01:27:29.311Z,88.40
2019-05-19T01:29:58.140Z,88.50
2019-05-19T01:32:27.059Z,88.90
2019-05-19T01:34:55.892Z,89.00
2019-05-19T01:37:24.875Z,89.20
2019-05-19T01:39:53.749Z,89.40
2019-05-19T01:42:22.612Z,89.40
2019-05-19T01:44:51.492Z,89.30
2019-05-19T01:47:20.481Z,89.40
2019-05-19T01:49:49.310Z,89.40
2019-05-19T01:52:18.113Z,89.10
2019-05-19T01:54:47.016Z,89.20
2019-05-19T01:57:15.868Z,90.20
2019-05-19T01:59:44.669Z,89.10
2019-05-19T02:02:13.467Z,89.30
2019-05-19T02:04:42.263Z,88.90
2019-05-19T02:07:11.149Z,89.20
2019-05-19T02:09:39.927Z,89.10
2019-05-19T02:12:08.722Z,89.00
2019-05-19T02:14:37.592Z,89.20
2019-05-19T02:17:06.487Z,89.40
2019-05-19T02:19:35.438Z,89.30
2019-05-19T02:22:04.558Z,89.30
2019-05-19T02:24:33.360Z,89.40
2019-05-19T02:27:02.188Z,89.40
2019-05-19T02:29:30.961Z,89.00
2019-05-19T02:31:59.839Z,88.60
2019-05-19T02:34:28.600Z,88.00
2019-05-19T02:36:57.606Z,88.50
2019-05-19T02:39:26.630Z,88.60
2019-05-19T02:41:56.824Z,88.80
2019-05-19T02:44:26.990Z,88.70
2019-05-19T02:46:57.324Z,88.70
2019-05-19T02:49:28.687Z,88.60
2019-05-19T02:51:59.240Z,89.50
2019-05-19T02:54:29.104Z,88.60
2019-05-19T02:56:59.501Z,89.20
2019-05-19T02:59:29.313Z,89.00
2019-05-19T03:02:03.943Z,88.30
2019-05-19T03:04:33.007Z,88.30
2019-05-19T03:07:01.799Z,89.10
2019-05-19T03:09:30.678Z,88.50
2019-05-19T03:11:59.729Z,88.90
2019-05-19T03:14:28.863Z,89.20
2019-05-19T03:16:57.787Z,89.20
2019-05-19T03:19:26.628Z,89.80
2019-05-19T03:21:55.483Z,89.70
2019-05-19T03:24:24.415Z,89.80
2019-05-19T03:26:53.218Z,89.80
2019-05-19T03:29:26.556Z,89.70
2019-05-19T03:32:13.465Z,89.30
2019-05-19T03:34:42.417Z,89.50
2019-05-19T03:37:11.283Z,89.70
2019-05-19T03:39:40.154Z,90.00
2019-05-19T03:42:10.603Z,89.90
2019-05-19T03:44:39.613Z,90.00
2019-05-19T03:47:08.432Z,90.20
2019-05-19T03:49:37.209Z,90.30
2019-05-19T03:52:06.081Z,90.20
2019-05-19T03:54:34.868Z,89.80
2019-05-19T03:57:03.749Z,90.30
2019-05-19T03:59:32.553Z,90.00
2019-05-19T04:02:01.351Z,90.00
2019-05-19T04:04:30.309Z,89.60
2019-05-19T04:06:59.185Z,89.50
2019-05-19T04:09:28.164Z,89.00
2019-05-19T04:11:56.931Z,89.40
2019-05-19T04:14:25.716Z,88.90
2019-05-19T04:16:54.501Z,88.70
2019-05-19T04:19:23.304Z,88.60
2019-05-19T04:21:52.149Z,88.30
2019-05-19T04:24:20.959Z,88.50
2019-05-19T04:26:50.114Z,88.20
2019-05-19T04:29:18.953Z,88.10
2019-05-19T04:31:47.920Z,88.10
2019-05-19T04:34:16.758Z,88.00
2019-05-19T04:36:45.708Z,88.10
2019-05-19T04:39:14.556Z,87.80
2019-05-19T04:41:43.415Z,88.10
2019-05-19T04:44:12.376Z,87.50
2019-05-19T04:46:41.231Z,87.50
2019-05-19T04:49:10.016Z,87.00
2019-05-19T04:51:38.788Z,86.80
2019-05-19T04:54:07.572Z,86.40
2019-05-19T04:56:36.344Z,86.50
2019-05-19T04:59:05.106Z,86.30
2019-05-19T05:01:33.959Z,85.70
2019-05-19T05:04:02.715Z,85.40
2019-05-19T05:06:31.512Z,85.40
2019-05-19T05:09:00.340Z,85.40
2019-05-19T05:11:29.197Z,85.40
2019-05-19T05:13:57.973Z,85.20
2019-05-19T05:16:26.793Z,84.80
2019-05-19T05:18:55.561Z,84.70
2019-05-19T05:21:24.561Z,84.50
2019-05-19T05:23:53.333Z,85.30
2019-05-19T05:26:22.138Z,84.60
2019-05-19T05:28:50.896Z,84.30
2019-05-19T05:31:19.761Z,84.50
2019-05-19T05:33:48.607Z,84.80
2019-05-19T05:36:17.397Z,84.30
2019-05-19T05:38:46.276Z,84.20
2019-05-19T05:41:15.057Z,84.30
2019-05-19T05:43:43.820Z,84.10
2019-05-19T05:46:12.691Z,84.60
2019-05-19T05:48:41.488Z,83.90
2019-05-19T05:51:10.254Z,83.50
2019-05-19T05:53:39.042Z,84.10
2019-05-19T05:56:07.829Z,84.20
2019-05-19T05:58:36.652Z,83.90
2019-05-19T06:01:05.508Z,84.10
2019-05-19T06:03:34.274Z,84.00
2019-05-19T06:06:03.049Z,83.50
2019-05-19T06:08:31.841Z,83.50
2019-05-19T06:11:00.608Z,83.50
2019-05-19T06:13:29.427Z,83.20
2019-05-19T06:15:58.303Z,83.40
2019-05-19T06:18:27.330Z,83.70
2019-05-19T06:20:56.094Z,83.40
2019-05-19T06:23:25.043Z,83.70
2019-05-19T06:25:53.837Z,83.30
2019-05-19T06:28:22.776Z,83.00
2019-05-19T06:30:51.626Z,83.30
2019-05-19T06:33:20.568Z,83.60
2019-05-19T06:35:49.325Z,82.40
2019-05-19T06:38:18.155Z,82.40
2019-05-19T06:40:48.801Z,82.80
2019-05-19T06:43:17.631Z,82.30
2019-05-19T06:45:46.392Z,82.60
2019-05-19T06:48:15.188Z,83.00
2019-05-19T06:50:44.023Z,82.50
2019-05-19T06:53:14.533Z,82.50
2019-05-19T06:55:43.404Z,83.20
2019-05-19T06:58:12.240Z,82.20
2019-05-19T07:00:41.036Z,81.50
2019-05-19T07:03:09.854Z,82.30
2019-05-19T07:05:38.725Z,82.60
2019-05-19T07:08:07.612Z,81.70
2019-05-19T07:10:38.809Z,81.50
2019-05-19T07:13:07.583Z,82.00
2019-05-19T07:15:36.673Z,80.90
2019-05-19T07:18:05.563Z,81.30
2019-05-19T07:20:34.645Z,80.20
2019-05-19T07:23:03.580Z,80.60
2019-05-19T07:25:32.444Z,80.70
2019-05-19T07:28:02.457Z,79.50
2019-05-19T07:30:31.307Z,78.60
2019-05-19T07:33:00.290Z,79.20
2019-05-19T07:35:29.179Z,79.80
2019-05-19T07:37:58.049Z,79.10
2019-05-19T07:40:26.906Z,79.80
2019-05-19T07:42:56.041Z,79.30
2019-05-19T07:45:24.890Z,79.60
2019-05-19T07:47:53.788Z,79.00
2019-05-19T07:50:22.590Z,79.30
2019-05-19T07:52:51.410Z,80.40
2019-05-19T07:55:20.383Z,78.80
2019-05-19T07:57:49.131Z,79.30
2019-05-19T08:00:18.650Z,79.20
2019-05-19T08:02:47.754Z,79.40
2019-05-19T08:05:16.720Z,79.40
2019-05-19T08:07:45.843Z,80.00
2019-05-19T08:10:14.924Z,79.90
2019-05-19T08:12:43.997Z,79.80
2019-05-19T08:15:13.032Z,79.40
2019-05-19T08:17:41.909Z,79.00
2019-05-19T08:20:10.998Z,79.90
2019-05-19T08:22:39.948Z,79.70
2019-05-19T08:25:09.088Z,79.20
2019-05-19T08:27:38.079Z,78.90
2019-05-19T08:30:07.633Z,78.60
2019-05-19T08:32:36.728Z,78.40
2019-05-19T08:35:06.303Z,79.00
2019-05-19T08:37:35.293Z,79.50
2019-05-19T08:40:04.886Z,79.30
2019-05-19T08:42:33.724Z,79.40
2019-05-19T08:45:02.906Z,80.20
2019-05-19T08:47:31.767Z,79.80
2019-05-19T08:50:00.624Z,80.30
2019-05-19T08:52:29.444Z,80.20
2019-05-19T08:54:58.306Z,79.70
2019-05-19T08:57:27.133Z,80.70
2019-05-19T08:59:55.989Z,81.30
2019-05-19T09:02:25.125Z,81.50
2019-05-19T09:04:53.891Z,81.40
2019-05-19T09:07:22.688Z,81.10
2019-05-19T09:09:52.637Z,81.00
2019-05-19T09:12:21.546Z,80.60
2019-05-19T09:14:50.415Z,80.80
2019-05-19T09:17:19.181Z,80.60
2019-05-19T09:19:48.196Z,80.90
2019-05-19T09:22:16.965Z,80.80
2019-05-19T09:24:45.795Z,81.50
2019-05-19T09:27:14.637Z,81.80
2019-05-19T09:29:43.428Z,81.90
2019-05-19T09:32:12.276Z,82.30
2019-05-19T09:34:41.096Z,81.50
2019-05-19T09:37:09.967Z,81.20
2019-05-19T09:39:38.970Z,81.60
2019-05-19T09:42:07.748Z,81.60
2019-05-19T09:44:36.537Z,80.80
2019-05-19T09:47:05.321Z,79.90
2019-05-19T09:49:35.349Z,80.10
2019-05-19T09:52:06.391Z,80.10
2019-05-19T09:54:44.918Z,80.40
2019-05-19T09:57:05.991Z,80.30
2019-05-19T09:59:34.933Z,79.90
2019-05-19T10:02:03.981Z,79.30
2019-05-19T10:04:32.882Z,80.00
2019-05-19T10:07:02.262Z,79.20
2019-05-19T10:10:01.318Z,79.10
2019-05-19T10:12:30.749Z,78.80
2019-05-19T10:14:59.845Z,79.20
2019-05-19T10:17:28.885Z,78.50
2019-05-19T10:19:57.936Z,79.80
2019-05-19T10:22:27.008Z,79.20
2019-05-19T10:25:18.136Z,78.40
2019-05-19T10:27:26.769Z,78.40
2019-05-19T10:29:55.919Z,78.10
2019-05-19T10:32:24.954Z,77.20
2019-05-19T10:34:54.133Z,78.10
2019-05-19T10:37:23.142Z,77.70
2019-05-19T10:39:52.148Z,78.00
2019-05-19T10:42:21.220Z,77.40
2019-05-19T10:44:52.205Z,77.00
2019-05-19T10:47:21.182Z,78.20
2019-05-19T10:49:50.310Z,76.00
2019-05-19T10:52:19.329Z,75.60
2019-05-19T10:54:48.485Z,76.80
2019-05-19T10:57:17.440Z,77.00
2019-05-19T10:59:46.412Z,77.30
2019-05-19T11:02:15.501Z,77.50
2019-05-19T11:04:44.367Z,77.30
2019-05-19T11:07:13.214Z,77.50
2019-05-19T11:09:42.028Z,77.40
2019-05-19T11:12:14.496Z,77.30
2019-05-19T11:14:43.520Z,78.00
2019-05-19T11:17:12.519Z,77.60
2019-05-19T11:19:41.659Z,77.90
2019-05-19T11:22:10.810Z,78.40
2019-05-19T11:24:39.697Z,79.10
2019-05-19T11:27:10.048Z,77.40
2019-05-19T11:29:39.212Z,77.20
2019-05-19T11:32:08.042Z,77.50
2019-05-19T11:34:37.080Z,75.70
2019-05-19T11:37:07.451Z,75.90
2019-05-19T11:39:36.499Z,75.70
2019-05-19T11:42:05.268Z,76.10
2019-05-19T11:44:34.127Z,75.00
2019-05-19T11:47:03.042Z,73.90
2019-05-19T11:49:31.823Z,73.90
2019-05-19T11:52:00.687Z,73.80
2019-05-19T11:54:29.507Z,73.30
2019-05-19T11:56:58.384Z,72.50
2019-05-19T11:59:27.559Z,72.50
2019-05-19T12:01:56.528Z,73.60
2019-05-19T12:04:25.296Z,74.60
2019-05-19T12:06:54.136Z,73.80
2019-05-19T12:09:22.996Z,73.30
2019-05-19T12:11:51.897Z,73.00
2019-05-19T12:14:20.649Z,73.00
2019-05-19T12:16:49.656Z,74.10
2019-05-19T12:19:18.527Z,73.00
2019-05-19T12:21:47.380Z,73.30
2019-05-19T12:24:16.214Z,72.30
2019-05-19T12:26:45.169Z,72.00
2019-05-19T12:29:13.925Z,71.70
2019-05-19T12:31:42.715Z,72.30
2019-05-19T12:34:11.537Z,72.40
2019-05-19T12:36:40.676Z,72.20
2019-05-19T12:39:09.505Z,72.80
2019-05-19T12:41:38.381Z,73.10
2019-05-19T12:44:07.248Z,71.90
2019-05-19T12:46:36.349Z,72.50
2019-05-19T12:49:05.208Z,73.30
2019-05-19T12:51:33.986Z,73.80
2019-05-19T12:54:02.735Z,76.00
2019-05-19T12:56:39.708Z,75.50
2019-05-19T12:59:02.092Z,76.00
2019-05-19T13:01:30.923Z,76.20
2019-05-19T13:03:59.721Z,75.80
2019-05-19T13:06:28.486Z,75.70
2019-05-19T13:08:57.256Z,77.10
2019-05-19T13:11:26.037Z,77.20
2019-05-19T13:13:55.048Z,77.60
2019-05-19T13:16:23.863Z,77.80
2019-05-19T13:18:52.729Z,78.40
2019-05-19T13:21:21.572Z,78.20
2019-05-19T13:23:50.427Z,78.20
2019-05-19T13:26:19.235Z,77.40
2019-05-19T13:28:48.026Z,77.20
2019-05-19T13:31:16.999Z,77.60
2019-05-19T13:33:45.819Z,78.00
2019-05-19T13:36:14.732Z,78.40
2019-05-19T13:38:43.838Z,78.70
2019-05-19T13:41:12.707Z,79.50
2019-05-19T13:43:41.624Z,79.60
2019-05-19T13:46:10.656Z,79.10
2019-05-19T13:48:39.522Z,79.60
2019-05-19T13:51:08.443Z,78.80
2019-05-19T13:53:37.356Z,79.60
2019-05-19T13:56:06.332Z,80.00
2019-05-19T13:58:35.228Z,78.60
2019-05-19T14:01:05.136Z,79.10
2019-05-19T14:03:34.287Z,78.90
2019-05-19T14:06:03.288Z,79.80
2019-05-19T14:08:32.259Z,80.40
2019-05-19T14:11:01.056Z,79.70
2019-05-19T14:13:29.931Z,79.80
2019-05-19T14:15:58.740Z,80.70
2019-05-19T14:18:27.492Z,82.00
2019-05-19T14:20:56.718Z,82.00
2019-05-19T14:23:25.687Z,82.00
2019-05-19T14:25:55.129Z,81.50
2019-05-19T14:28:23.991Z,81.90
2019-05-19T14:30:53.086Z,83.20
2019-05-19T14:33:22.091Z,82.70
2019-05-19T14:35:51.393Z,83.00
2019-05-19T14:38:20.396Z,83.20
2019-05-19T14:40:49.358Z,83.20
2019-05-19T14:43:19.008Z,83.50
2019-05-19T14:45:47.932Z,82.90
2019-05-19T14:48:16.873Z,83.60
2019-05-19T14:50:45.824Z,83.80
2019-05-19T14:53:15.011Z,83.40
2019-05-19T14:55:43.924Z,84.00
2019-05-19T14:58:12.777Z,84.10
2019-05-19T15:00:41.726Z,84.90
2019-05-19T15:03:10.785Z,85.40
2019-05-19T15:05:39.860Z,85.30
2019-05-19T15:08:08.756Z,85.70
2019-05-19T15:10:37.619Z,85.60
2019-05-19T15:13:06.471Z,85.90
2019-05-19T15:15:35.435Z,85.50
2019-05-19T15:18:04.285Z,86.30
2019-05-19T15:20:33.194Z,86.10
2019-05-19T15:23:02.009Z,86.70
2019-05-19T15:25:31.065Z,87.80
2019-05-19T15:28:04.416Z,86.70
2019-05-19T15:30:30.540Z,87.40
2019-05-19T15:32:59.823Z,87.50
2019-05-19T15:35:28.602Z,87.40
2019-05-19T15:37:57.517Z,87.50
2019-05-19T15:40:26.322Z,87.90
2019-05-19T15:42:55.283Z,88.40
2019-05-19T15:45:24.204Z,88.50
2019-05-19T15:47:53.009Z,88.40
2019-05-19T15:50:21.905Z,88.80
2019-05-19T15:52:50.768Z,88.20
2019-05-19T15:55:19.588Z,88.80
2019-05-19T15:57:48.379Z,89.90
2019-05-19T16:00:17.473Z,88.80
2019-05-19T16:02:46.417Z,89.00
2019-05-19T16:05:15.600Z,89.30
2019-05-19T16:07:45.631Z,89.30
2019-05-19T16:10:14.960Z,89.80
2019-05-19T16:12:43.860Z,90.40
2019-05-19T16:15:13.181Z,89.80
2019-05-19T16:17:42.415Z,89.90
2019-05-19T16:20:11.803Z,89.50
2019-05-19T16:22:40.632Z,89.90
2019-05-19T16:25:09.641Z,89.90
2019-05-19T16:27:38.844Z,89.70
2019-05-19T16:30:08.232Z,89.70
2019-05-19T16:32:37.067Z,90.10
2019-05-19T16:35:06.111Z,90.00
2019-05-19T16:37:34.899Z,90.20
2019-05-19T16:40:04.003Z,90.20
2019-05-19T16:42:32.774Z,90.40
2019-05-19T16:45:01.545Z,90.40
2019-05-19T16:47:30.300Z,90.30
2019-05-19T16:49:59.088Z,90.70
2019-05-19T16:52:27.842Z,90.80
2019-05-19T16:55:14.514Z,90.90
2019-05-19T16:57:43.646Z,91.10
2019-05-19T17:00:12.948Z,91.00
2019-05-19T17:02:41.733Z,91.10
2019-05-19T17:05:10.960Z,91.10
2019-05-19T17:07:39.736Z,91.10
2019-05-19T17:10:08.761Z,91.10
2019-05-19T17:12:37.590Z,91.30
2019-05-19T17:15:07.181Z,91.20
2019-05-19T17:17:36.018Z,91.40
2019-05-19T17:20:05.458Z,91.20
2019-05-19T17:22:34.369Z,91.20
2019-05-19T17:25:03.123Z,91.10
2019-05-19T17:27:31.915Z,91.20
2019-05-19T17:30:00.667Z,91.50
2019-05-19T17:32:29.489Z,91.50
2019-05-19T17:34:58.287Z,91.70
2019-05-19T17:37:27.147Z,91.70
2019-05-19T17:39:55.917Z,91.70
2019-05-19T17:42:24.769Z,91.90
2019-05-19T17:44:56.005Z,92.00
2019-05-19T17:47:24.768Z,92.10
2019-05-19T17:49:53.603Z,92.20
2019-05-19T17:52:22.512Z,91.90
2019-05-19T17:54:51.446Z,91.80
2019-05-19T17:57:20.370Z,91.80
2019-05-19T17:59:50.853Z,91.90
2019-05-19T18:02:19.743Z,92.00
2019-05-19T18:04:48.503Z,92.00
2019-05-19T18:07:25.246Z,92.20
2019-05-19T18:09:54.126Z,92.20
2019-05-19T18:12:22.964Z,92.40
2019-05-19T18:14:52.155Z,92.10
2019-05-19T18:17:21.275Z,92.10
2019-05-19T18:19:50.140Z,92.30
2019-05-19T18:22:19.080Z,92.30
2019-05-19T18:24:47.977Z,92.40
2019-05-19T18:27:16.820Z,92.30
2019-05-19T18:29:45.628Z,92.40
2019-05-19T18:32:14.441Z,92.50
2019-05-19T18:34:43.343Z,92.90
2019-05-19T18:37:13.538Z,92.70
2019-05-19T18:39:42.649Z,92.70
2019-05-19T18:42:11.462Z,92.90
2019-05-19T18:44:42.001Z,92.90
2019-05-19T18:47:10.913Z,92.80
2019-05-19T18:49:39.712Z,92.80
2019-05-19T18:52:08.572Z,92.80
2019-05-19T18:54:37.564Z,93.00
2019-05-19T18:57:06.637Z,93.00
2019-05-19T18:59:46.794Z,93.30
2019-05-19T19:02:06.108Z,93.40
2019-05-19T19:04:35.061Z,93.50
2019-05-19T19:07:03.973Z,93.50
2019-05-19T19:09:32.852Z,93.50
2019-05-19T19:12:01.676Z,93.40
2019-05-19T19:14:30.460Z,93.40
2019-05-19T19:16:59.386Z,93.50
2019-05-19T19:19:28.281Z,93.60
2019-05-19T19:21:58.536Z,93.70
2019-05-19T19:24:27.774Z,93.70
2019-05-19T19:26:56.627Z,93.50
2019-05-19T19:29:25.473Z,93.40
2019-05-19T19:31:54.410Z,93.50
2019-05-19T19:34:23.270Z,93.50
2019-05-19T19:36:52.191Z,93.70
2019-05-19T19:39:21.198Z,93.40
2019-05-19T19:41:50.172Z,93.40
2019-05-19T19:44:19.136Z,93.40
2019-05-19T19:46:47.880Z,93.50
2019-05-19T19:49:16.749Z,93.60
2019-05-19T19:51:45.640Z,93.50
2019-05-19T19:54:14.519Z,93.60
2019-05-19T19:56:43.307Z,94.00
2019-05-19T19:59:12.353Z,93.50
2019-05-19T20:01:41.245Z,93.40
2019-05-19T20:04:10.139Z,93.50
2019-05-19T20:06:39.036Z,93.50
2019-05-19T20:09:08.120Z,93.60
2019-05-19T20:11:36.979Z,93.60
2019-05-19T20:14:05.806Z,93.70
2019-05-19T20:16:34.599Z,93.80
2019-05-19T20:19:03.452Z,93.90
2019-05-19T20:21:32.375Z,93.80
2019-05-19T20:24:03.270Z,93.90
2019-05-19T20:26:32.048Z,93.80
2019-05-19T20:29:00.808Z,93.70
2019-05-19T20:31:31.465Z,94.10
2019-05-19T20:34:00.246Z,93.80
2019-05-19T20:36:29.141Z,93.80
2019-05-19T20:38:58.097Z,93.70
2019-05-19T20:41:26.944Z,93.90
2019-05-19T20:43:55.750Z,93.80
2019-05-19T20:46:24.591Z,93.80
2019-05-19T20:48:53.390Z,93.80
2019-05-19T20:51:22.301Z,93.70
2019-05-19T20:53:53.307Z,93.70
2019-05-19T20:56:21.947Z,93.90
2019-05-19T20:58:50.816Z,93.80
2019-05-19T21:01:19.652Z,93.70
2019-05-19T21:03:48.403Z,93.80
2019-05-19T21:06:17.186Z,93.90
2019-05-19T21:08:46.069Z,93.70
2019-05-19T21:11:14.916Z,93.70
2019-05-19T21:13:43.668Z,93.50
2019-05-19T21:16:12.596Z,93.80
2019-05-19T21:18:41.377Z,93.70
2019-05-19T21:21:11.428Z,93.80
2019-05-19T21:23:40.259Z,94.10
2019-05-19T21:26:09.019Z,94.00
2019-05-19T21:28:37.862Z,94.10
2019-05-19T21:31:06.667Z,94.00
2019-05-19T21:33:35.688Z,93.90
2019-05-19T21:36:04.483Z,93.90
2019-05-19T21:38:33.369Z,93.90
2019-05-19T21:41:02.375Z,93.80
2019-05-19T21:43:31.222Z,93.90
2019-05-19T21:46:00.371Z,93.90
2019-05-19T21:48:33.467Z,94.00
2019-05-19T21:51:02.458Z,93.80
2019-05-19T21:53:31.289Z,93.80
2019-05-19T21:56:00.185Z,93.80
2019-05-19T21:58:28.979Z,93.70
2019-05-19T22:00:57.920Z,93.60
2019-05-19T22:03:26.751Z,93.40
2019-05-19T22:05:55.512Z,93.50
2019-05-19T22:08:24.729Z,93.70
2019-05-19T22:10:53.544Z,93.30
2019-05-19T22:13:22.537Z,93.50
2019-05-19T22:15:51.458Z,93.30
2019-05-19T22:18:20.465Z,93.50
2019-05-19T22:20:49.348Z,93.30
2019-05-19T22:23:18.350Z,93.40
2019-05-19T22:25:47.289Z,93.60
2019-05-19T22:28:16.183Z,93.50
2019-05-19T22:30:45.066Z,93.20
2019-05-19T22:33:13.859Z,93.40
2019-05-19T22:35:42.743Z,93.40
2019-05-19T22:38:11.601Z,93.40
2019-05-19T22:40:40.508Z,93.40
2019-05-19T22:43:09.406Z,93.90
2019-05-19T22:45:38.343Z,93.50
2019-05-19T22:48:07.333Z,93.40
2019-05-19T22:50:36.188Z,93.30
2019-05-19T22:53:05.128Z,93.10
2019-05-19T22:55:33.935Z,93.20
2019-05-19T22:58:02.709Z,93.10
2019-05-19T23:00:31.632Z,93.10
2019-05-19T23:03:00.600Z,93.20
2019-05-19T23:05:29.445Z,93.20
2019-05-19T23:07:58.316Z,93.20
2019-05-19T23:10:27.255Z,93.00
2019-05-19T23:12:56.064Z,92.80
2019-05-19T23:15:25.271Z,92.70
2019-05-19T23:17:54.090Z,92.80
2019-05-19T23:20:23.098Z,92.80
2019-05-19T23:22:51.983Z,92.80
2019-05-19T23:25:20.765Z,92.80
2019-05-19T23:27:49.593Z,92.70
2019-05-19T23:30:18.525Z,92.60
2019-05-19T23:32:47.305Z,92.60
2019-05-19T23:35:16.271Z,92.60
2019-05-19T23:37:45.055Z,92.30
2019-05-19T23:40:14.067Z,92.30
2019-05-19T23:42:43.179Z,92.40
2019-05-19T23:45:12.439Z,92.70
2019-05-19T23:47:41.189Z,92.40
2019-05-19T23:50:10.108Z,92.40
2019-05-19T23:52:39.027Z,92.60
2019-05-19T23:55:07.873Z,92.30
2019-05-19T23:57:36.643Z,92.90
